Time;durP1;ratioP1;P1;durP2;ratioP2;P2;SDS_P1;SDS_P2;PMS_P1;PMS_P2;Temp;Humidity;BMP_temperature;BMP_pressure;BME280_temperature;BME280_humidity;BME280_pressure;Samples;Min_cycle;Max_cycle;Signal;HPM_P1;HPM_P2
2021/12/14 00:00:49;;;;;;;17.55;10.27;;;1.60;99.90;;;;;;5016134;28;20090;-79
2021/12/14 00:03:19;;;;;;;16.77;9.60;;;1.60;99.90;;;;;;5015793;28;20294;-79
2021/12/14 00:05:45;;;;;;;18.80;10.68;;;1.60;99.90;;;;;;5015389;28;20033;-79
2021/12/14 00:08:14;;;;;;;17.27;10.63;;;1.60;99.90;;;;;;5015593;28;20045;-78
2021/12/14 00:11:08;;;;;;;17.60;9.85;;;1.60;99.90;;;;;;5015455;28;20033;-79
2021/12/14 00:16:07;;;;;;;20.17;11.07;;;1.60;99.90;;;;;;5033352;28;20104;-80
2021/12/14 00:18:34;;;;;;;18.20;10.43;;;1.60;99.90;;;;;;5015224;28;20052;-80
2021/12/14 00:21:19;;;;;;;19.77;10.88;;;1.60;99.90;;;;;;5032542;28;20567;-80
2021/12/14 00:24:06;;;;;;;20.55;11.15;;;1.60;99.90;;;;;;5013458;28;20037;-79
2021/12/14 00:26:34;;;;;;;23.42;12.00;;;1.60;99.90;;;;;;5033067;28;20456;-79
2021/12/14 00:29:00;;;;;;;22.45;12.75;;;1.60;99.90;;;;;;5016030;28;20072;-79
2021/12/14 00:31:26;;;;;;;18.92;11.07;;;1.50;99.90;;;;;;5014755;28;20128;-80
2021/12/14 00:33:56;;;;;;;19.75;10.68;;;1.50;99.90;;;;;;5032389;28;20053;-79
2021/12/14 00:36:22;;;;;;;19.52;10.65;;;1.50;99.90;;;;;;5015020;28;20036;-79
2021/12/14 00:38:54;;;;;;;18.58;10.85;;;1.50;99.90;;;;;;5014986;28;20045;-78
2021/12/14 00:41:23;;;;;;;18.15;9.90;;;1.50;99.90;;;;;;5014968;28;20041;-80
2021/12/14 00:43:49;;;;;;;18.60;10.25;;;1.50;99.90;;;;;;5015226;28;20033;-80
2021/12/14 00:46:17;;;;;;;17.85;9.50;;;1.40;99.90;;;;;;5014731;28;20195;-79
2021/12/14 00:48:44;;;;;;;16.05;10.20;;;1.50;99.90;;;;;;5015367;28;20438;-80
2021/12/14 00:51:11;;;;;;;17.02;9.55;;;1.50;99.90;;;;;;5014982;28;20061;-78
2021/12/14 00:53:37;;;;;;;21.73;10.88;;;1.50;99.90;;;;;;5014917;28;20038;-79
2021/12/14 00:56:06;;;;;;;19.48;10.45;;;1.50;99.90;;;;;;5033457;28;20037;-79
2021/12/14 00:58:32;;;;;;;17.67;9.93;;;1.50;99.90;;;;;;5033254;28;20030;-79
2021/12/14 01:01:00;;;;;;;17.80;9.88;;;1.40;99.90;;;;;;5015254;28;20080;-79
2021/12/14 01:03:29;;;;;;;17.75;9.13;;;1.50;99.90;;;;;;5031874;28;20033;-79
2021/12/14 01:05:55;;;;;;;19.08;9.65;;;1.50;99.90;;;;;;5032494;28;20042;-79
2021/12/14 01:08:25;;;;;;;17.60;9.48;;;1.50;99.90;;;;;;5014841;28;20042;-79
2021/12/14 01:11:13;;;;;;;17.33;8.95;;;1.40;99.90;;;;;;5014696;28;20460;-79
2021/12/14 01:13:44;;;;;;;17.67;9.82;;;1.50;99.90;;;;;;5014823;28;20030;-79
2021/12/14 01:16:30;;;;;;;15.95;9.20;;;1.50;99.90;;;;;;5015056;28;20495;-78
2021/12/14 01:19:11;;;;;;;17.25;9.18;;;1.50;99.90;;;;;;5032589;28;20128;-78
2021/12/14 01:24:21;;;;;;;16.13;8.68;;;1.40;99.90;;;;;;5032338;28;20048;-78
2021/12/14 01:26:47;;;;;;;16.65;8.95;;;1.40;99.90;;;;;;5014638;28;20045;-80
2021/12/14 01:29:16;;;;;;;14.07;8.50;;;1.40;99.90;;;;;;5032194;28;20026;-78
2021/12/14 01:31:43;;;;;;;18.23;9.57;;;1.40;99.90;;;;;;5032206;28;20112;-79
2021/12/14 01:34:21;;;;;;;18.15;9.77;;;1.40;99.90;;;;;;5014673;28;20053;-79
2021/12/14 01:36:53;;;;;;;15.10;9.02;;;1.40;99.90;;;;;;5027746;28;20048;-79
2021/12/14 01:39:48;;;;;;;16.42;9.27;;;1.40;99.90;;;;;;5017692;28;20437;-80
2021/12/14 01:42:18;;;;;;;16.15;8.93;;;1.30;99.90;;;;;;5035929;28;20034;-79
2021/12/14 01:44:50;;;;;;;17.38;9.45;;;1.30;99.90;;;;;;5018780;28;20040;-79
2021/12/14 01:47:21;;;;;;;19.52;10.13;;;1.30;99.90;;;;;;5018737;28;20080;-78
2021/12/14 01:49:48;;;;;;;22.85;12.05;;;1.30;99.90;;;;;;5037002;28;20126;-78
2021/12/14 01:52:19;;;;;;;25.67;12.85;;;1.30;99.90;;;;;;5036439;28;20037;-79
2021/12/14 01:54:50;;;;;;;22.60;12.13;;;1.30;99.90;;;;;;5018700;28;20633;-79
2021/12/14 01:57:20;;;;;;;23.10;12.13;;;1.30;99.90;;;;;;5036384;28;20038;-79
2021/12/14 01:59:48;;;;;;;20.75;10.80;;;1.30;99.90;;;;;;5018513;28;20092;-78
2021/12/14 02:02:33;;;;;;;20.35;10.75;;;1.30;99.90;;;;;;5018628;28;20476;-80
2021/12/14 02:05:05;;;;;;;15.85;8.88;;;1.30;99.90;;;;;;5035466;28;20025;-79
2021/12/14 02:07:33;;;;;;;17.80;9.43;;;1.30;99.90;;;;;;5017522;28;20471;-79
2021/12/14 02:10:05;;;;;;;14.18;8.88;;;1.30;99.90;;;;;;5017415;28;20033;-79
2021/12/14 02:12:32;;;;;;;18.55;9.85;;;1.30;99.90;;;;;;5017556;28;20037;-79
2021/12/14 02:15:21;;;;;;;15.55;9.13;;;1.30;99.90;;;;;;5017730;28;20132;-79
2021/12/14 02:17:48;;;;;;;16.92;9.45;;;1.30;99.90;;;;;;5035964;28;20036;-78
2021/12/14 02:20:18;;;;;;;16.45;9.30;;;1.30;99.90;;;;;;5018546;28;20041;-78
2021/12/14 02:22:44;;;;;;;19.70;10.75;;;1.30;99.90;;;;;;5036202;28;20029;-78
2021/12/14 02:25:12;;;;;;;17.73;9.50;;;1.30;99.90;;;;;;5017866;28;20030;-78
2021/12/14 02:27:42;;;;;;;17.75;10.10;;;1.30;99.90;;;;;;5035327;28;20108;-80
2021/12/14 02:30:16;;;;;;;17.83;9.53;;;1.30;99.90;;;;;;5035837;28;20040;-79
2021/12/14 02:32:42;;;;;;;16.70;9.82;;;1.30;99.90;;;;;;5036068;28;20041;-80
2021/12/14 02:35:11;;;;;;;16.35;9.70;;;1.30;99.90;;;;;;5034422;28;20037;-80
2021/12/14 02:37:47;;;;;;;20.77;12.77;;;1.30;99.90;;;;;;5016874;28;20036;-80
2021/12/14 02:40:32;;;;;;;19.95;10.95;;;1.40;99.90;;;;;;5016148;28;20507;-81
2021/12/14 02:43:01;;;;;;;20.77;12.23;;;1.40;99.90;;;;;;5017066;28;20041;-80
2021/12/14 02:45:27;;;;;;;22.67;12.32;;;1.40;99.90;;;;;;5016852;28;20044;-80
2021/12/14 02:47:53;;;;;;;20.42;11.75;;;1.40;99.90;;;;;;5016971;28;20465;-80
2021/12/14 02:50:21;;;;;;;24.75;12.48;;;1.50;99.90;;;;;;5016734;28;20041;-79
2021/12/14 02:52:48;;;;;;;19.98;10.02;;;1.40;99.90;;;;;;5017677;28;20064;-79
2021/12/14 02:55:21;;;;;;;22.42;11.23;;;1.50;99.90;;;;;;5017712;28;20037;-81
2021/12/14 02:57:54;;;;;;;21.40;11.57;;;1.50;99.90;;;;;;5017594;28;20041;-79
2021/12/14 03:00:30;;;;;;;21.35;11.10;;;1.50;99.90;;;;;;5035518;28;20387;-79
2021/12/14 03:02:59;;;;;;;19.92;11.15;;;1.40;99.90;;;;;;5016315;28;20414;-80
2021/12/14 03:05:31;;;;;;;21.70;12.15;;;1.40;99.90;;;;;;5016109;28;20519;-80
2021/12/14 03:08:18;;;;;;;23.52;11.48;;;1.40;99.90;;;;;;5033637;28;20037;-79
2021/12/14 03:11:22;;;;;;;21.27;11.05;;;1.40;99.90;;;;;;5016434;28;20033;-79
2021/12/14 03:13:46;;;;;;;22.83;11.95;;;1.40;99.90;;;;;;5032731;28;20040;-78
2021/12/14 03:16:34;;;;;;;21.58;11.00;;;1.40;99.90;;;;;;5016970;28;20476;-78
2021/12/14 03:19:06;;;;;;;21.85;11.55;;;1.40;99.90;;;;;;5016753;28;20041;-80
2021/12/14 03:21:35;;;;;;;22.75;11.10;;;1.40;99.90;;;;;;5016428;28;20044;-79
2021/12/14 03:24:11;;;;;;;21.88;11.00;;;1.40;99.90;;;;;;5017017;28;20037;-79
2021/12/14 03:26:43;;;;;;;25.23;12.15;;;1.40;99.90;;;;;;5034348;28;20074;-79
2021/12/14 03:29:19;;;;;;;23.02;11.25;;;1.40;99.90;;;;;;5016968;28;20045;-79
2021/12/14 03:31:47;;;;;;;23.08;11.90;;;1.40;99.90;;;;;;5016975;28;20041;-79
2021/12/14 03:34:20;;;;;;;22.70;11.75;;;1.40;99.90;;;;;;5029715;28;20049;-79
2021/12/14 03:37:00;;;;;;;20.58;10.90;;;1.40;99.90;;;;;;5032368;28;20171;-80
2021/12/14 03:39:26;;;;;;;22.30;11.75;;;1.40;99.90;;;;;;5025540;28;20054;-79
2021/12/14 03:41:57;;;;;;;20.48;10.50;;;1.40;99.90;;;;;;5004617;28;20526;-79
2021/12/14 03:44:24;;;;;;;27.85;12.95;;;1.40;99.90;;;;;;5014713;28;20045;-79
2021/12/14 03:46:55;;;;;;;24.42;12.63;;;1.50;99.90;;;;;;5014539;28;20092;-79
2021/12/14 03:49:25;;;;;;;23.83;11.43;;;1.40;99.90;;;;;;4996757;28;20045;-79
2021/12/14 03:51:51;;;;;;;26.88;12.70;;;1.50;99.90;;;;;;4997109;28;20033;-79
2021/12/14 03:54:19;;;;;;;26.25;13.13;;;1.40;99.90;;;;;;4996514;28;20042;-80
2021/12/14 03:56:47;;;;;;;27.75;13.77;;;1.40;99.90;;;;;;5013227;28;20114;-79
2021/12/14 03:59:13;;;;;;;29.40;13.82;;;1.40;99.90;;;;;;4995636;28;20081;-78
2021/12/14 04:01:41;;;;;;;36.60;17.67;;;1.40;99.90;;;;;;5011646;28;20519;-78
2021/12/14 04:04:19;;;;;;;44.40;20.52;;;1.40;99.90;;;;;;5033740;28;20033;-80
2021/12/14 04:06:47;;;;;;;49.50;23.08;;;1.30;99.90;;;;;;5022821;28;20040;-78
2021/12/14 04:09:15;;;;;;;46.03;20.92;;;1.30;99.90;;;;;;5033759;28;20067;-79
2021/12/14 04:11:41;;;;;;;45.58;21.58;;;1.30;99.90;;;;;;5024196;28;20025;-80
2021/12/14 04:14:08;;;;;;;37.60;19.17;;;1.30;99.90;;;;;;5033144;28;20080;-78
2021/12/14 04:16:37;;;;;;;37.83;18.90;;;1.30;99.90;;;;;;5023413;28;20057;-78
2021/12/14 04:19:10;;;;;;;37.22;19.60;;;1.30;99.90;;;;;;5020340;28;20132;-80
2021/12/14 04:21:39;;;;;;;36.88;18.67;;;1.20;99.90;;;;;;5022117;28;20376;-79
2021/12/14 04:24:07;;;;;;;39.95;19.48;;;1.20;99.90;;;;;;5021333;28;20091;-79
2021/12/14 04:26:34;;;;;;;35.40;17.23;;;1.20;99.90;;;;;;5023081;28;20037;-81
2021/12/14 04:29:01;;;;;;;29.60;16.13;;;1.20;99.90;;;;;;5015899;28;20073;-80
2021/12/14 04:31:27;;;;;;;27.67;14.27;;;1.20;99.90;;;;;;5020962;28;20033;-80
2021/12/14 04:33:54;;;;;;;28.40;15.13;;;1.20;99.90;;;;;;5033526;28;20480;-78
2021/12/14 04:36:26;;;;;;;31.15;14.77;;;1.20;99.90;;;;;;5014773;28;20033;-81
2021/12/14 04:39:01;;;;;;;29.00;14.95;;;1.20;99.90;;;;;;5033062;28;20046;-79
2021/12/14 04:53:00;;;;;;;22.60;12.20;;;1.10;99.90;;;;;;5033085;28;20072;-78
2021/12/14 04:55:26;;;;;;;23.48;11.98;;;1.20;99.90;;;;;;5015629;28;20092;-78
2021/12/14 04:57:52;;;;;;;23.60;12.00;;;1.20;99.90;;;;;;5015839;28;20038;-77
2021/12/14 05:00:32;;;;;;;25.00;12.73;;;1.20;99.90;;;;;;5015569;28;20049;-78
2021/12/14 05:03:01;;;;;;;25.10;13.05;;;1.20;99.90;;;;;;5016132;28;20492;-78
2021/12/14 05:05:32;;;;;;;24.77;12.32;;;1.20;99.90;;;;;;5033175;28;20487;-77
2021/12/14 05:11:04;;;;;;;27.33;14.25;;;1.20;99.90;;;;;;5008539;28;20120;-84
2021/12/14 05:13:36;;;;;;;26.67;14.25;;;1.20;99.90;;;;;;5012436;28;20037;-83
2021/12/14 05:16:03;;;;;;;29.02;14.98;;;1.20;99.90;;;;;;5005264;28;20033;-84
2021/12/14 05:18:30;;;;;;;28.10;15.65;;;1.10;99.90;;;;;;5018218;28;20033;-83
2021/12/14 05:20:58;;;;;;;28.35;14.98;;;1.10;99.90;;;;;;5036857;28;20132;-78
2021/12/14 05:23:33;;;;;;;28.27;14.25;;;1.10;99.90;;;;;;5035859;28;20033;-80
2021/12/14 05:26:06;;;;;;;27.33;13.82;;;1.10;99.90;;;;;;5017601;28;20049;-80
2021/12/14 05:28:37;;;;;;;29.35;14.45;;;1.10;99.90;;;;;;5037990;28;20068;-81
2021/12/14 05:31:03;;;;;;;27.73;15.18;;;1.10;99.90;;;;;;5037010;28;20029;-81
2021/12/14 05:33:33;;;;;;;27.42;14.60;;;1.10;99.90;;;;;;5035897;28;20102;-81
2021/12/14 05:36:06;;;;;;;31.23;15.17;;;1.10;99.90;;;;;;5017573;28;20168;-82
2021/12/14 05:44:11;;;;;;;25.10;14.25;;;1.10;99.90;;;;;;5032270;28;20395;-82
2021/12/14 05:46:37;;;;;;;26.73;13.93;;;1.20;99.90;;;;;;5015251;28;20040;-83
2021/12/14 05:49:08;;;;;;;24.17;13.13;;;1.20;99.90;;;;;;5014609;28;20380;-81
2021/12/14 05:51:35;;;;;;;28.38;14.20;;;1.20;99.90;;;;;;5014807;28;20040;-81
2021/12/14 05:54:03;;;;;;;24.00;12.80;;;1.20;99.90;;;;;;5015282;28;20448;-81
2021/12/14 05:56:30;;;;;;;23.92;13.13;;;1.20;99.90;;;;;;5034230;28;20112;-82
2021/12/14 05:58:57;;;;;;;26.67;14.30;;;1.20;99.90;;;;;;5015817;28;20052;-81
2021/12/14 06:01:27;;;;;;;25.30;14.77;;;1.20;99.90;;;;;;5016507;28;20113;-80
2021/12/14 06:04:03;;;;;;;23.95;13.65;;;1.20;99.90;;;;;;5018249;28;20447;-80
2021/12/14 06:06:48;;;;;;;22.88;12.70;;;1.20;99.90;;;;;;5019157;28;20444;-80
2021/12/14 06:09:36;;;;;;;25.15;14.15;;;1.30;99.90;;;;;;5018430;28;20125;-83
2021/12/14 06:12:13;;;;;;;46.03;24.23;;;1.30;99.90;;;;;;5018425;28;20044;-83
2021/12/14 06:14:50;;;;;;;83.38;44.35;;;1.30;99.90;;;;;;5018568;28;20490;-85
2021/12/14 06:17:22;;;;;;;47.60;25.85;;;1.30;99.90;;;;;;5018049;28;20041;-83
2021/12/14 06:19:55;;;;;;;37.17;20.02;;;1.40;99.90;;;;;;5018145;28;20399;-83
2021/12/14 06:22:23;;;;;;;39.33;19.80;;;1.40;99.90;;;;;;5018832;28;20040;-80
2021/12/14 06:25:03;;;;;;;35.83;19.25;;;1.40;99.90;;;;;;5034495;28;20033;-80
2021/12/14 06:27:31;;;;;;;32.92;17.45;;;1.40;99.90;;;;;;5017909;28;20030;-79
2021/12/14 06:30:13;;;;;;;34.88;17.85;;;1.40;99.90;;;;;;5017375;28;20526;-78
2021/12/14 06:32:55;;;;;;;32.65;16.00;;;1.40;99.90;;;;;;5017774;28;20064;-78
2021/12/14 06:35:27;;;;;;;31.52;16.85;;;1.40;99.90;;;;;;5034446;28;20041;-79
2021/12/14 06:41:12;;;;;;;34.88;17.92;;;1.40;99.90;;;;;;5035543;28;20114;-78
2021/12/14 06:43:49;;;;;;;74.75;38.50;;;1.40;99.90;;;;;;5034501;28;20051;-82
2021/12/14 06:46:19;;;;;;;75.88;37.33;;;1.40;99.90;;;;;;5035628;28;20041;-82
2021/12/14 06:49:12;;;;;;;56.33;27.65;;;1.40;99.90;;;;;;5034145;28;20459;-78
2021/12/14 06:51:43;;;;;;;43.63;21.50;;;1.40;99.90;;;;;;5031399;28;20036;-79
2021/12/14 06:54:16;;;;;;;41.00;19.75;;;1.40;99.90;;;;;;5034912;28;20034;-79
2021/12/14 06:56:46;;;;;;;46.35;21.17;;;1.50;99.90;;;;;;5033016;28;20042;-79
2021/12/14 06:59:15;;;;;;;47.53;21.40;;;1.40;99.90;;;;;;5033170;28;20047;-79
2021/12/14 07:01:43;;;;;;;48.47;22.15;;;1.40;99.90;;;;;;5032715;28;20267;-78
2021/12/14 07:04:18;;;;;;;41.70;20.02;;;1.40;99.90;;;;;;5032737;28;20026;-79
2021/12/14 07:06:51;;;;;;;39.72;19.77;;;1.50;99.90;;;;;;5030608;28;20087;-77
2021/12/14 07:09:19;;;;;;;44.88;19.98;;;1.40;99.90;;;;;;5030820;28;20033;-79
2021/12/14 07:11:54;;;;;;;40.70;19.48;;;1.40;99.90;;;;;;5031632;28;20427;-78
2021/12/14 07:14:26;;;;;;;39.65;19.10;;;1.40;99.90;;;;;;5032731;28;20033;-78
2021/12/14 07:16:54;;;;;;;40.83;19.17;;;1.30;99.90;;;;;;5033136;28;20026;-78
2021/12/14 07:19:45;;;;;;;37.67;18.85;;;1.30;99.90;;;;;;5034708;28;20044;-78
2021/12/14 07:22:28;;;;;;;39.85;19.30;;;1.30;99.90;;;;;;5033967;28;20087;-78
2021/12/14 07:25:05;;;;;;;37.47;18.45;;;1.30;99.90;;;;;;5035087;28;20033;-78
2021/12/14 07:27:42;;;;;;;39.13;19.27;;;1.30;99.90;;;;;;5034797;28;20030;-78
2021/12/14 07:30:11;;;;;;;35.33;17.75;;;1.30;99.90;;;;;;5033192;28;20064;-79
2021/12/14 07:32:49;;;;;;;35.22;17.40;;;1.30;99.90;;;;;;5034029;28;20053;-79
2021/12/14 07:35:27;;;;;;;36.15;17.05;;;1.40;99.90;;;;;;5016673;28;20037;-78
2021/12/14 07:38:02;;;;;;;35.10;17.75;;;1.30;99.90;;;;;;5016698;28;20464;-78
2021/12/14 07:40:40;;;;;;;30.95;14.60;;;1.40;99.90;;;;;;5016679;28;20071;-77
2021/12/14 07:43:10;;;;;;;29.70;14.25;;;1.40;99.90;;;;;;5016689;28;20034;-77
2021/12/14 07:45:36;;;;;;;32.38;15.98;;;1.40;99.90;;;;;;5016998;28;20365;-78
2021/12/14 07:48:02;;;;;;;34.00;16.58;;;1.50;99.90;;;;;;5016264;28;20040;-78
2021/12/14 07:50:58;;;;;;;35.08;16.92;;;1.40;99.90;;;;;;5016200;28;20029;-78
2021/12/14 07:53:40;;;;;;;36.08;19.17;;;1.50;99.90;;;;;;5007624;28;20486;-78
2021/12/14 07:56:06;;;;;;;42.03;20.92;;;1.40;99.90;;;;;;5016721;28;20135;-77
2021/12/14 07:58:42;;;;;;;40.60;20.13;;;1.50;99.90;;;;;;5016143;28;20045;-79
2021/12/14 08:01:13;;;;;;;42.75;22.70;;;1.50;99.90;;;;;;5016020;28;20033;-79
2021/12/14 08:03:39;;;;;;;35.08;18.30;;;1.40;99.90;;;;;;5016201;28;20033;-79
2021/12/14 08:06:13;;;;;;;28.92;15.57;;;1.50;99.90;;;;;;5016227;28;20491;-78
2021/12/14 08:08:45;;;;;;;31.15;15.45;;;1.40;99.90;;;;;;5033990;28;20037;-78
2021/12/14 08:14:25;;;;;;;25.77;13.77;;;1.50;99.90;;;;;;5033344;28;20037;-78
2021/12/14 08:16:56;;;;;;;28.38;13.63;;;1.50;99.90;;;;;;5015929;28;20045;-78
2021/12/14 08:19:31;;;;;;;28.10;14.02;;;1.50;99.90;;;;;;5016345;28;20432;-77
2021/12/14 08:21:59;;;;;;;28.13;13.73;;;1.60;99.90;;;;;;5016211;28;20120;-77
2021/12/14 08:24:25;;;;;;;29.20;15.48;;;1.60;99.90;;;;;;5033673;28;20037;-78
2021/12/14 08:26:55;;;;;;;31.73;16.30;;;1.60;99.90;;;;;;5015949;28;20353;-78
2021/12/14 08:29:31;;;;;;;26.88;13.70;;;1.60;99.90;;;;;;5033535;28;20091;-79
2021/12/14 08:32:05;;;;;;;29.33;14.63;;;1.60;99.90;;;;;;5033508;28;20022;-78
2021/12/14 08:34:34;;;;;;;27.45;14.10;;;1.50;99.90;;;;;;5031341;28;20100;-78
2021/12/14 08:37:08;;;;;;;22.98;12.82;;;1.60;99.90;;;;;;5032279;28;20471;-78
2021/12/14 08:39:45;;;;;;;36.10;20.45;;;1.60;99.90;;;;;;5032231;28;20038;-78
2021/12/14 08:42:24;;;;;;;32.22;17.50;;;1.60;99.90;;;;;;5033725;28;20032;-77
2021/12/14 08:44:54;;;;;;;29.23;16.08;;;1.60;99.90;;;;;;5033624;28;20360;-78
2021/12/14 08:47:27;;;;;;;28.23;14.18;;;1.60;99.90;;;;;;5032274;28;20531;-78
2021/12/14 08:49:54;;;;;;;28.13;14.45;;;1.60;99.90;;;;;;5036368;28;20494;-79
2021/12/14 08:52:21;;;;;;;28.77;13.90;;;1.60;99.90;;;;;;5037543;28;20464;-78
2021/12/14 08:54:47;;;;;;;25.48;12.82;;;1.60;99.90;;;;;;5036247;28;20040;-78
2021/12/14 08:57:20;;;;;;;23.70;12.73;;;1.60;99.90;;;;;;5037257;28;20092;-78
2021/12/14 08:59:49;;;;;;;25.77;12.52;;;1.70;99.90;;;;;;5037534;28;20038;-78
2021/12/14 09:02:22;;;;;;;22.73;11.82;;;1.70;99.90;;;;;;5037324;28;20029;-78
2021/12/14 09:05:08;;;;;;;24.98;12.93;;;1.70;99.90;;;;;;5037396;28;20034;-78
2021/12/14 09:07:34;;;;;;;29.52;15.18;;;1.70;99.90;;;;;;5035387;28;20041;-77
2021/12/14 09:10:11;;;;;;;30.25;17.80;;;1.70;99.90;;;;;;5037083;28;20034;-77
2021/12/14 09:12:39;;;;;;;34.35;18.15;;;1.70;99.90;;;;;;5036189;28;20061;-77
2021/12/14 09:15:15;;;;;;;32.03;17.55;;;1.70;99.90;;;;;;5037658;28;20061;-77
2021/12/14 09:17:41;;;;;;;32.08;16.85;;;1.70;99.90;;;;;;5035949;28;20034;-77
2021/12/14 09:20:44;;;;;;;25.58;13.25;;;1.70;99.90;;;;;;5035534;28;20051;-77
2021/12/14 09:23:14;;;;;;;24.40;12.52;;;1.70;99.90;;;;;;5032911;28;20033;-78
2021/12/14 09:25:41;;;;;;;22.98;12.32;;;1.80;99.90;;;;;;5035592;28;20033;-78
2021/12/14 09:28:08;;;;;;;22.20;11.73;;;1.80;99.90;;;;;;5035362;28;20033;-78
2021/12/14 09:30:43;;;;;;;19.77;10.90;;;1.80;99.90;;;;;;5035399;28;20073;-78
2021/12/14 09:33:10;;;;;;;18.88;10.95;;;1.80;99.90;;;;;;5035142;28;20533;-79
2021/12/14 09:35:37;;;;;;;24.13;12.18;;;1.80;99.90;;;;;;5035470;28;20480;-78
2021/12/14 09:38:08;;;;;;;23.80;12.88;;;1.80;99.90;;;;;;5036908;28;20041;-78
2021/12/14 09:40:42;;;;;;;20.92;12.07;;;1.80;99.90;;;;;;5036480;28;20041;-78
2021/12/14 09:43:10;;;;;;;22.90;11.93;;;1.80;99.90;;;;;;5035108;28;20111;-78
2021/12/14 09:45:44;;;;;;;26.25;12.65;;;1.80;99.90;;;;;;5036176;28;20041;-78
2021/12/14 09:48:18;;;;;;;35.28;20.33;;;1.80;99.90;;;;;;5035368;28;20494;-78
2021/12/14 09:50:46;;;;;;;39.70;20.88;;;1.70;99.90;;;;;;5035451;28;20387;-78
2021/12/14 09:53:15;;;;;;;25.17;14.45;;;1.70;99.90;;;;;;5035161;28;20056;-78
2021/12/14 09:55:42;;;;;;;26.00;13.25;;;1.80;99.90;;;;;;5036728;28;20045;-78
2021/12/14 09:58:14;;;;;;;24.17;13.25;;;1.70;99.90;;;;;;5034758;28;20037;-78
2021/12/14 10:00:52;;;;;;;22.63;12.07;;;1.70;99.90;;;;;;5035420;28;20047;-78
2021/12/14 10:03:18;;;;;;;22.38;12.40;;;1.70;99.90;;;;;;5035330;28;20384;-78
2021/12/14 10:05:57;;;;;;;22.52;12.52;;;1.70;99.90;;;;;;5036431;28;20034;-78
2021/12/14 10:08:33;;;;;;;22.55;12.75;;;1.70;99.90;;;;;;5036251;28;20099;-78
2021/12/14 10:11:06;;;;;;;24.23;12.93;;;1.70;99.90;;;;;;5035482;28;20037;-78
2021/12/14 10:13:37;;;;;;;26.17;13.25;;;1.70;99.90;;;;;;5035266;28;20057;-78
2021/12/14 10:16:05;;;;;;;30.20;16.48;;;1.70;99.90;;;;;;5035426;28;20033;-78
2021/12/14 10:18:36;;;;;;;26.20;14.80;;;1.70;99.90;;;;;;5035006;28;20124;-79
2021/12/14 10:21:15;;;;;;;26.00;13.32;;;1.70;99.90;;;;;;5034565;28;20462;-78
2021/12/14 10:23:42;;;;;;;25.92;12.35;;;1.80;99.90;;;;;;5034673;28;20068;-78
2021/12/14 10:26:09;;;;;;;21.85;11.25;;;1.70;99.90;;;;;;5034392;28;20395;-78
2021/12/14 10:28:38;;;;;;;21.13;11.25;;;1.80;99.90;;;;;;5034493;28;20042;-78
2021/12/14 10:31:09;;;;;;;23.80;11.93;;;1.80;99.90;;;;;;5035813;28;20117;-78
2021/12/14 10:33:35;;;;;;;;;;;1.80;99.90;;;;;;5034587;28;20132;-78
2021/12/14 10:36:16;;;;;;;23.60;12.23;;;1.80;99.90;;;;;;5035607;28;20070;-78
2021/12/14 10:39:03;;;;;;;;;;;1.80;99.90;;;;;;5035149;28;20037;-78
2021/12/14 10:44:12;;;;;;;19.05;9.57;;;1.80;99.90;;;;;;5035721;28;20087;-78
2021/12/14 10:46:46;;;;;;;22.80;12.48;;;1.70;99.90;;;;;;5035658;28;20068;-79
2021/12/14 10:49:14;;;;;;;25.52;14.18;;;1.70;99.90;;;;;;5034403;28;20476;-78
2021/12/14 10:51:43;;;;;;;28.85;16.08;;;1.70;99.90;;;;;;5034008;28;20056;-78
2021/12/14 10:54:13;;;;;;;24.85;13.52;;;1.70;99.90;;;;;;5035163;28;20029;-77
2021/12/14 10:56:59;;;;;;;24.00;12.65;;;1.70;99.90;;;;;;5034212;28;20064;-79
2021/12/14 10:59:31;;;;;;;23.35;11.35;;;1.70;99.90;;;;;;5035167;28;20041;-79
2021/12/14 11:01:57;;;;;;;16.65;9.52;;;1.70;99.90;;;;;;5034034;28;20040;-78
2021/12/14 11:04:34;;;;;;;17.60;9.73;;;1.80;99.90;;;;;;5034831;28;20116;-78
2021/12/14 11:07:02;;;;;;;17.25;10.18;;;1.80;99.90;;;;;;5035525;28;20065;-79
2021/12/14 11:09:41;;;;;;;18.98;10.32;;;1.80;99.90;;;;;;5034328;28;20450;-79
2021/12/14 11:12:16;;;;;;;23.33;12.32;;;1.90;99.90;;;;;;5033812;28;20042;-78
2021/12/14 11:14:42;;;;;;;20.88;11.60;;;1.90;99.90;;;;;;5033871;28;20044;-78
2021/12/14 11:20:01;;;;;;;21.52;11.77;;;2.00;99.90;;;;;;5035198;28;20097;-78
2021/12/14 11:22:32;;;;;;;;;;;2.00;99.90;;;;;;5034239;28;20129;-78
2021/12/14 11:25:13;;;;;;;18.30;10.43;;;2.00;99.90;;;;;;5034060;28;20409;-78
2021/12/14 11:27:43;;;;;;;17.05;10.32;;;2.00;99.90;;;;;;5033646;28;20041;-79
2021/12/14 11:30:26;;;;;;;19.52;10.45;;;2.00;99.90;;;;;;5034864;28;20434;-78
2021/12/14 11:33:10;;;;;;;17.58;9.70;;;2.00;99.90;;;;;;5034528;28;20107;-79
2021/12/14 11:35:50;;;;;;;19.10;10.95;;;2.00;99.90;;;;;;5016893;28;20064;-78
2021/12/14 11:38:24;;;;;;;20.00;10.55;;;2.00;99.90;;;;;;5016558;28;20484;-78
2021/12/14 11:40:50;;;;;;;21.88;11.23;;;2.00;99.90;;;;;;5016625;28;20368;-78
2021/12/14 11:43:19;;;;;;;32.88;18.60;;;1.90;99.90;;;;;;5016312;28;20039;-78
2021/12/14 11:45:47;;;;;;;28.90;14.63;;;1.90;99.90;;;;;;5034112;28;20033;-78
2021/12/14 11:48:15;;;;;;;24.30;12.93;;;1.90;99.90;;;;;;5016126;28;20411;-78
2021/12/14 11:50:46;;;;;;;21.48;12.45;;;1.90;99.90;;;;;;5033875;28;20463;-79
2021/12/14 11:53:14;;;;;;;;;;;1.80;99.90;;;;;;5016831;28;20029;-78
2021/12/14 11:55:51;;;;;;;20.38;10.75;;;1.70;99.90;;;;;;5016543;28;20200;-79
2021/12/14 11:58:38;;;;;;;19.58;9.75;;;1.70;99.90;;;;;;5016437;28;20471;-77
2021/12/14 12:01:31;;;;;;;21.35;11.10;;;1.70;99.90;;;;;;5034045;28;20368;-78
2021/12/14 12:04:06;;;;;;;20.48;10.98;;;1.70;99.90;;;;;;5016279;28;20041;-78
2021/12/14 12:09:37;;;;;;;19.80;9.82;;;1.70;99.90;;;;;;5033807;28;20120;-78
2021/12/14 12:12:03;;;;;;;17.83;9.45;;;1.70;99.90;;;;;;5034407;28;20080;-77
2021/12/14 12:14:30;;;;;;;19.63;10.85;;;1.70;99.90;;;;;;5016090;28;20033;-78
2021/12/14 12:17:17;;;;;;;19.30;10.48;;;1.80;99.90;;;;;;5033774;28;20034;-78
2021/12/14 12:20:13;;;;;;;19.27;10.27;;;1.80;99.90;;;;;;5015848;28;20037;-78
2021/12/14 12:22:44;;;;;;;21.38;11.48;;;1.80;99.90;;;;;;5016303;28;20084;-78
2021/12/14 12:25:15;;;;;;;21.27;11.63;;;1.80;99.90;;;;;;5033527;28;20033;-78
2021/12/14 12:27:50;;;;;;;38.42;21.08;;;1.80;99.90;;;;;;5015635;28;20459;-77
2021/12/14 12:30:35;;;;;;;27.77;15.48;;;1.80;99.90;;;;;;5033621;28;20069;-77
2021/12/14 12:33:07;;;;;;;27.92;14.90;;;1.80;99.90;;;;;;5033546;28;20060;-79
2021/12/14 12:35:43;;;;;;;21.35;11.52;;;1.70;99.90;;;;;;5016251;28;20045;-79
2021/12/14 12:38:27;;;;;;;21.83;11.93;;;1.70;99.90;;;;;;5015720;28;20502;-78
2021/12/14 12:41:07;;;;;;;21.73;11.65;;;1.70;99.90;;;;;;5015475;28;20038;-78
2021/12/14 12:43:45;;;;;;;23.23;13.13;;;1.70;99.90;;;;;;5016308;28;20167;-78
2021/12/14 12:46:21;;;;;;;24.52;13.10;;;1.70;99.90;;;;;;5033437;28;20033;-78
2021/12/14 12:49:01;;;;;;;23.20;11.85;;;1.70;99.90;;;;;;5033609;28;20038;-78
2021/12/14 12:51:51;;;;;;;22.88;12.00;;;1.70;99.90;;;;;;5015638;28;20033;-78
2021/12/14 12:54:37;;;;;;;30.30;15.20;;;1.70;99.90;;;;;;5015753;28;20033;-78
2021/12/14 12:57:13;;;;;;;30.52;16.30;;;1.70;99.90;;;;;;4995187;28;20317;-78
2021/12/14 13:00:09;;;;;;;36.17;17.92;;;1.60;99.90;;;;;;5015869;28;20395;-78
2021/12/14 13:02:35;;;;;;;36.33;17.98;;;1.60;99.90;;;;;;5015586;28;20053;-78
2021/12/14 13:05:18;;;;;;;44.28;21.60;;;1.60;99.90;;;;;;5015582;28;20056;-79
2021/12/14 13:07:53;;;;;;;45.78;21.13;;;1.60;99.90;;;;;;5015565;28;20064;-79
2021/12/14 13:10:27;;;;;;;42.70;19.98;;;1.50;99.90;;;;;;5015922;28;20057;-78
2021/12/14 13:13:18;;;;;;;38.65;18.38;;;1.50;99.90;;;;;;5015991;28;20030;-78
2021/12/14 13:15:59;;;;;;;34.55;16.90;;;1.50;99.90;;;;;;5015213;28;20179;-79
2021/12/14 13:18:31;;;;;;;32.20;16.75;;;1.50;99.90;;;;;;5015129;28;20036;-78
2021/12/14 13:21:17;;;;;;;28.77;14.32;;;1.40;99.90;;;;;;5014929;28;20029;-78
2021/12/14 13:23:52;;;;;;;40.40;17.60;;;1.50;99.90;;;;;;5015440;28;20503;-78
2021/12/14 13:26:18;;;;;;;36.15;17.88;;;1.40;99.90;;;;;;5032957;28;20108;-78
2021/12/14 13:28:44;;;;;;;32.75;16.10;;;1.40;99.90;;;;;;5032636;28;20034;-78
2021/12/14 13:31:28;;;;;;;37.83;18.67;;;1.50;99.90;;;;;;5015335;28;20033;-78
2021/12/14 13:33:54;;;;;;;42.00;20.98;;;1.50;99.90;;;;;;5027218;28;20100;-77
2021/12/14 13:36:20;;;;;;;81.18;40.08;;;1.50;99.90;;;;;;5036337;28;20040;-77
2021/12/14 13:38:46;;;;;;;62.55;32.38;;;1.50;99.90;;;;;;5035130;28;20037;-80
2021/12/14 13:41:28;;;;;;;59.85;30.27;;;1.50;99.90;;;;;;5035114;28;20392;-78
2021/12/14 13:43:54;;;;;;;51.90;26.60;;;1.50;99.90;;;;;;5035251;28;20080;-78
2021/12/14 13:46:20;;;;;;;48.00;22.80;;;1.50;99.90;;;;;;5036230;28;20057;-77
2021/12/14 13:48:48;;;;;;;38.25;19.27;;;1.50;99.90;;;;;;5035508;28;20041;-76